sensor_id;sensor_type;location;lat;lon;timestamp;P1;durP1;ratioP1;P2;durP2;ratioP2
54193;SDS011;40102;50.906;6.972;2023-12-04T00:04:34;16.42;;;7.18;;
54193;SDS011;40102;50.906;6.972;2023-12-04T00:07:37;13.90;;;6.60;;
54193;SDS011;40102;50.906;6.972;2023-12-04T00:13:55;13.90;;;6.35;;
54193;SDS011;40102;50.906;6.972;2023-12-04T00:26:12;12.93;;;5.82;;
54193;SDS011;40102;50.906;6.972;2023-12-04T00:31:48;14.95;;;6.20;;
54193;SDS011;40102;50.906;6.972;2023-12-04T00:38:17;14.93;;;6.57;;
54193;SDS011;40102;50.906;6.972;2023-12-04T00:41:19;14.45;;;6.43;;
54193;SDS011;40102;50.906;6.972;2023-12-04T00:44:15;13.02;;;5.75;;
54193;SDS011;40102;50.906;6.972;2023-12-04T00:47:35;13.52;;;6.40;;
54193;SDS011;40102;50.906;6.972;2023-12-04T00:51:03;14.50;;;6.40;;
54193;SDS011;40102;50.906;6.972;2023-12-04T00:54:07;12.52;;;6.03;;
54193;SDS011;40102;50.906;6.972;2023-12-04T01:10:51;12.70;;;5.70;;
54193;SDS011;40102;50.906;6.972;2023-12-04T01:17:03;13.45;;;6.60;;
54193;SDS011;40102;50.906;6.972;2023-12-04T01:19:46;15.23;;;6.32;;
54193;SDS011;40102;50.906;6.972;2023-12-04T01:28:38;15.27;;;6.30;;
54193;SDS011;40102;50.906;6.972;2023-12-04T01:31:09;13.00;;;5.78;;
54193;SDS011;40102;50.906;6.972;2023-12-04T01:33:59;15.80;;;7.00;;
54193;SDS011;40102;50.906;6.972;2023-12-04T01:46:57;12.85;;;5.75;;
54193;SDS011;40102;50.906;6.972;2023-12-04T01:53:23;13.95;;;5.68;;
54193;SDS011;40102;50.906;6.972;2023-12-04T01:56:15;10.98;;;5.20;;
54193;SDS011;40102;50.906;6.972;2023-12-04T02:02:27;11.38;;;5.53;;
54193;SDS011;40102;50.906;6.972;2023-12-04T02:05:30;12.15;;;5.90;;
54193;SDS011;40102;50.906;6.972;2023-12-04T02:07:56;16.15;;;6.38;;
54193;SDS011;40102;50.906;6.972;2023-12-04T02:10:21;10.70;;;5.18;;
54193;SDS011;40102;50.906;6.972;2023-12-04T02:12:48;12.20;;;5.82;;
54193;SDS011;40102;50.906;6.972;2023-12-04T02:15:14;11.45;;;5.13;;
54193;SDS011;40102;50.906;6.972;2023-12-04T02:17:40;9.52;;;4.60;;
54193;SDS011;40102;50.906;6.972;2023-12-04T02:20:06;12.02;;;5.50;;
54193;SDS011;40102;50.906;6.972;2023-12-04T02:22:32;11.82;;;5.50;;
54193;SDS011;40102;50.906;6.972;2023-12-04T02:24:58;11.30;;;5.40;;
54193;SDS011;40102;50.906;6.972;2023-12-04T02:27:26;10.23;;;5.00;;
54193;SDS011;40102;50.906;6.972;2023-12-04T02:30:04;12.77;;;5.63;;
54193;SDS011;40102;50.906;6.972;2023-12-04T02:32:33;10.68;;;4.68;;
54193;SDS011;40102;50.906;6.972;2023-12-04T02:35:03;11.45;;;5.32;;
54193;SDS011;40102;50.906;6.972;2023-12-04T02:37:30;13.77;;;6.63;;
54193;SDS011;40102;50.906;6.972;2023-12-04T02:39:57;12.38;;;5.95;;
54193;SDS011;40102;50.906;6.972;2023-12-04T02:42:23;12.52;;;5.68;;
54193;SDS011;40102;50.906;6.972;2023-12-04T02:44:52;11.15;;;5.43;;
54193;SDS011;40102;50.906;6.972;2023-12-04T02:47:18;12.20;;;5.53;;
54193;SDS011;40102;50.906;6.972;2023-12-04T02:49:43;13.80;;;6.38;;
54193;SDS011;40102;50.906;6.972;2023-12-04T02:52:09;13.75;;;5.60;;
54193;SDS011;40102;50.906;6.972;2023-12-04T02:54:34;11.18;;;5.60;;
54193;SDS011;40102;50.906;6.972;2023-12-04T02:57:00;13.25;;;5.72;;
54193;SDS011;40102;50.906;6.972;2023-12-04T02:59:25;12.43;;;5.88;;
54193;SDS011;40102;50.906;6.972;2023-12-04T03:01:50;12.98;;;6.32;;
54193;SDS011;40102;50.906;6.972;2023-12-04T03:04:16;11.70;;;6.03;;
54193;SDS011;40102;50.906;6.972;2023-12-04T03:06:41;10.52;;;5.38;;
54193;SDS011;40102;50.906;6.972;2023-12-04T03:09:07;12.27;;;5.75;;
54193;SDS011;40102;50.906;6.972;2023-12-04T03:11:32;11.85;;;5.47;;
54193;SDS011;40102;50.906;6.972;2023-12-04T03:13:59;12.75;;;5.25;;
54193;SDS011;40102;50.906;6.972;2023-12-04T03:16:25;13.43;;;5.70;;
54193;SDS011;40102;50.906;6.972;2023-12-04T03:18:51;12.10;;;5.50;;
54193;SDS011;40102;50.906;6.972;2023-12-04T03:21:16;12.20;;;5.68;;
54193;SDS011;40102;50.906;6.972;2023-12-04T03:23:42;14.85;;;6.30;;
54193;SDS011;40102;50.906;6.972;2023-12-04T03:26:07;13.95;;;5.72;;
54193;SDS011;40102;50.906;6.972;2023-12-04T03:28:34;11.95;;;5.93;;
54193;SDS011;40102;50.906;6.972;2023-12-04T03:30:59;11.43;;;5.15;;
54193;SDS011;40102;50.906;6.972;2023-12-04T03:33:24;11.48;;;5.38;;
54193;SDS011;40102;50.906;6.972;2023-12-04T03:35:50;11.88;;;5.72;;
54193;SDS011;40102;50.906;6.972;2023-12-04T03:38:15;12.75;;;6.22;;
54193;SDS011;40102;50.906;6.972;2023-12-04T03:40:41;10.48;;;5.30;;
54193;SDS011;40102;50.906;6.972;2023-12-04T03:43:06;13.40;;;5.65;;
54193;SDS011;40102;50.906;6.972;2023-12-04T03:45:31;10.82;;;5.25;;
54193;SDS011;40102;50.906;6.972;2023-12-04T03:47:57;12.23;;;5.45;;
54193;SDS011;40102;50.906;6.972;2023-12-04T03:50:22;11.52;;;5.15;;
54193;SDS011;40102;50.906;6.972;2023-12-04T03:52:48;12.40;;;5.97;;
54193;SDS011;40102;50.906;6.972;2023-12-04T03:55:13;12.85;;;5.75;;
54193;SDS011;40102;50.906;6.972;2023-12-04T03:57:38;14.27;;;6.00;;
54193;SDS011;40102;50.906;6.972;2023-12-04T04:00:04;12.63;;;5.43;;
54193;SDS011;40102;50.906;6.972;2023-12-04T04:02:30;12.02;;;5.68;;
54193;SDS011;40102;50.906;6.972;2023-12-04T04:04:55;12.10;;;6.00;;
54193;SDS011;40102;50.906;6.972;2023-12-04T04:07:21;11.10;;;5.10;;
54193;SDS011;40102;50.906;6.972;2023-12-04T04:09:46;13.63;;;6.47;;
54193;SDS011;40102;50.906;6.972;2023-12-04T04:12:12;13.52;;;5.85;;
54193;SDS011;40102;50.906;6.972;2023-12-04T04:14:37;12.85;;;6.63;;
54193;SDS011;40102;50.906;6.972;2023-12-04T04:17:03;13.63;;;6.00;;
54193;SDS011;40102;50.906;6.972;2023-12-04T04:19:29;12.48;;;6.55;;
54193;SDS011;40102;50.906;6.972;2023-12-04T04:21:54;13.45;;;6.18;;
54193;SDS011;40102;50.906;6.972;2023-12-04T04:24:19;13.10;;;6.20;;
54193;SDS011;40102;50.906;6.972;2023-12-04T04:26:45;13.98;;;6.13;;
54193;SDS011;40102;50.906;6.972;2023-12-04T04:29:10;11.82;;;6.32;;
54193;SDS011;40102;50.906;6.972;2023-12-04T04:31:36;15.82;;;7.13;;
54193;SDS011;40102;50.906;6.972;2023-12-04T04:34:01;14.32;;;6.38;;
54193;SDS011;40102;50.906;6.972;2023-12-04T04:36:27;12.13;;;6.03;;
54193;SDS011;40102;50.906;6.972;2023-12-04T04:38:52;15.15;;;6.35;;
54193;SDS011;40102;50.906;6.972;2023-12-04T04:41:17;13.00;;;5.38;;
54193;SDS011;40102;50.906;6.972;2023-12-04T04:43:43;16.10;;;6.22;;
54193;SDS011;40102;50.906;6.972;2023-12-04T04:46:08;12.93;;;5.72;;
54193;SDS011;40102;50.906;6.972;2023-12-04T04:48:34;14.23;;;6.55;;
54193;SDS011;40102;50.906;6.972;2023-12-04T04:50:59;17.27;;;7.07;;
54193;SDS011;40102;50.906;6.972;2023-12-04T04:53:25;14.85;;;6.68;;
54193;SDS011;40102;50.906;6.972;2023-12-04T04:55:50;13.60;;;6.75;;
54193;SDS011;40102;50.906;6.972;2023-12-04T04:58:16;12.43;;;5.95;;
54193;SDS011;40102;50.906;6.972;2023-12-04T05:00:41;13.77;;;6.25;;
54193;SDS011;40102;50.906;6.972;2023-12-04T05:03:07;16.92;;;7.38;;
54193;SDS011;40102;50.906;6.972;2023-12-04T05:05:33;14.32;;;6.25;;
54193;SDS011;40102;50.906;6.972;2023-12-04T05:07:58;13.82;;;6.70;;
54193;SDS011;40102;50.906;6.972;2023-12-04T05:10:24;15.40;;;6.63;;
54193;SDS011;40102;50.906;6.972;2023-12-04T05:12:49;14.68;;;6.55;;
54193;SDS011;40102;50.906;6.972;2023-12-04T05:15:15;13.57;;;5.95;;
54193;SDS011;40102;50.906;6.972;2023-12-04T05:17:40;16.88;;;7.35;;
54193;SDS011;40102;50.906;6.972;2023-12-04T05:20:06;12.65;;;6.40;;
54193;SDS011;40102;50.906;6.972;2023-12-04T05:22:32;12.20;;;6.43;;
54193;SDS011;40102;50.906;6.972;2023-12-04T05:24:59;16.98;;;6.57;;
54193;SDS011;40102;50.906;6.972;2023-12-04T05:27:24;16.35;;;7.35;;
54193;SDS011;40102;50.906;6.972;2023-12-04T05:29:52;13.98;;;6.68;;
54193;SDS011;40102;50.906;6.972;2023-12-04T05:32:18;16.85;;;7.20;;
54193;SDS011;40102;50.906;6.972;2023-12-04T05:34:43;15.73;;;6.93;;
54193;SDS011;40102;50.906;6.972;2023-12-04T05:37:08;14.55;;;6.47;;
54193;SDS011;40102;50.906;6.972;2023-12-04T05:39:34;14.77;;;6.95;;
54193;SDS011;40102;50.906;6.972;2023-12-04T05:41:59;14.77;;;7.20;;
54193;SDS011;40102;50.906;6.972;2023-12-04T05:44:26;15.50;;;7.18;;
54193;SDS011;40102;50.906;6.972;2023-12-04T05:46:51;14.75;;;6.57;;
54193;SDS011;40102;50.906;6.972;2023-12-04T05:49:17;15.85;;;7.18;;
54193;SDS011;40102;50.906;6.972;2023-12-04T05:51:42;16.48;;;7.65;;
54193;SDS011;40102;50.906;6.972;2023-12-04T05:54:08;13.25;;;6.20;;
54193;SDS011;40102;50.906;6.972;2023-12-04T05:56:34;14.30;;;7.10;;
54193;SDS011;40102;50.906;6.972;2023-12-04T05:58:59;15.55;;;7.20;;
54193;SDS011;40102;50.906;6.972;2023-12-04T06:01:24;13.75;;;6.32;;
54193;SDS011;40102;50.906;6.972;2023-12-04T06:03:50;15.38;;;6.97;;
54193;SDS011;40102;50.906;6.972;2023-12-04T06:06:15;15.32;;;7.28;;
54193;SDS011;40102;50.906;6.972;2023-12-04T06:08:40;16.90;;;7.90;;
54193;SDS011;40102;50.906;6.972;2023-12-04T06:11:06;16.60;;;7.40;;
54193;SDS011;40102;50.906;6.972;2023-12-04T06:13:31;14.88;;;7.70;;
54193;SDS011;40102;50.906;6.972;2023-12-04T06:15:57;13.80;;;6.72;;
54193;SDS011;40102;50.906;6.972;2023-12-04T06:18:22;15.45;;;7.10;;
54193;SDS011;40102;50.906;6.972;2023-12-04T06:20:47;16.10;;;7.82;;
54193;SDS011;40102;50.906;6.972;2023-12-04T06:23:13;14.77;;;6.32;;
54193;SDS011;40102;50.906;6.972;2023-12-04T06:25:39;16.90;;;7.53;;
54193;SDS011;40102;50.906;6.972;2023-12-04T06:28:05;18.15;;;7.70;;
54193;SDS011;40102;50.906;6.972;2023-12-04T06:30:31;17.02;;;8.18;;
54193;SDS011;40102;50.906;6.972;2023-12-04T06:32:57;17.00;;;7.70;;
54193;SDS011;40102;50.906;6.972;2023-12-04T06:35:22;19.73;;;8.45;;
54193;SDS011;40102;50.906;6.972;2023-12-04T06:37:48;15.25;;;7.47;;
54193;SDS011;40102;50.906;6.972;2023-12-04T06:40:18;18.48;;;8.93;;
54193;SDS011;40102;50.906;6.972;2023-12-04T06:42:44;16.38;;;7.13;;
54193;SDS011;40102;50.906;6.972;2023-12-04T06:45:10;15.20;;;7.88;;
54193;SDS011;40102;50.906;6.972;2023-12-04T06:47:36;13.90;;;6.70;;
54193;SDS011;40102;50.906;6.972;2023-12-04T06:50:08;17.98;;;8.30;;
54193;SDS011;40102;50.906;6.972;2023-12-04T06:52:33;17.60;;;7.57;;
54193;SDS011;40102;50.906;6.972;2023-12-04T06:54:58;18.98;;;6.95;;
54193;SDS011;40102;50.906;6.972;2023-12-04T06:57:24;16.50;;;7.55;;
54193;SDS011;40102;50.906;6.972;2023-12-04T06:59:49;18.27;;;7.95;;
54193;SDS011;40102;50.906;6.972;2023-12-04T07:02:14;18.83;;;8.05;;
54193;SDS011;40102;50.906;6.972;2023-12-04T07:04:40;15.32;;;7.50;;
54193;SDS011;40102;50.906;6.972;2023-12-04T07:07:05;18.13;;;7.82;;
54193;SDS011;40102;50.906;6.972;2023-12-04T07:09:31;15.57;;;7.57;;
54193;SDS011;40102;50.906;6.972;2023-12-04T07:11:57;17.33;;;7.50;;
54193;SDS011;40102;50.906;6.972;2023-12-04T07:14:23;17.73;;;7.68;;
54193;SDS011;40102;50.906;6.972;2023-12-04T07:16:48;16.42;;;7.38;;
54193;SDS011;40102;50.906;6.972;2023-12-04T07:19:14;20.40;;;7.63;;
54193;SDS011;40102;50.906;6.972;2023-12-04T07:21:41;15.68;;;7.07;;
54193;SDS011;40102;50.906;6.972;2023-12-04T07:24:06;14.82;;;6.65;;
54193;SDS011;40102;50.906;6.972;2023-12-04T07:26:33;15.55;;;6.38;;
54193;SDS011;40102;50.906;6.972;2023-12-04T07:28:59;15.68;;;6.20;;
54193;SDS011;40102;50.906;6.972;2023-12-04T07:31:25;15.10;;;7.00;;
54193;SDS011;40102;50.906;6.972;2023-12-04T07:33:52;14.10;;;6.93;;
54193;SDS011;40102;50.906;6.972;2023-12-04T07:36:20;15.13;;;7.40;;
54193;SDS011;40102;50.906;6.972;2023-12-04T07:38:46;12.90;;;6.82;;
54193;SDS011;40102;50.906;6.972;2023-12-04T07:41:12;13.90;;;6.03;;
54193;SDS011;40102;50.906;6.972;2023-12-04T07:43:38;7.88;;;3.60;;
54193;SDS011;40102;50.906;6.972;2023-12-04T07:46:04;14.70;;;6.22;;
54193;SDS011;40102;50.906;6.972;2023-12-04T07:48:30;15.23;;;7.20;;
54193;SDS011;40102;50.906;6.972;2023-12-04T07:50:56;17.40;;;7.28;;
54193;SDS011;40102;50.906;6.972;2023-12-04T07:53:21;18.73;;;7.47;;
54193;SDS011;40102;50.906;6.972;2023-12-04T07:55:48;14.55;;;6.85;;
54193;SDS011;40102;50.906;6.972;2023-12-04T07:58:16;11.75;;;6.13;;
54193;SDS011;40102;50.906;6.972;2023-12-04T08:00:42;15.65;;;6.85;;
54193;SDS011;40102;50.906;6.972;2023-12-04T08:03:07;13.40;;;6.90;;
54193;SDS011;40102;50.906;6.972;2023-12-04T08:05:32;14.15;;;6.35;;
54193;SDS011;40102;50.906;6.972;2023-12-04T08:07:58;12.55;;;5.47;;
54193;SDS011;40102;50.906;6.972;2023-12-04T08:10:24;16.25;;;6.68;;
54193;SDS011;40102;50.906;6.972;2023-12-04T08:12:49;17.25;;;6.55;;
54193;SDS011;40102;50.906;6.972;2023-12-04T08:15:14;17.42;;;6.53;;
54193;SDS011;40102;50.906;6.972;2023-12-04T08:17:40;13.82;;;6.40;;
54193;SDS011;40102;50.906;6.972;2023-12-04T08:20:06;17.60;;;7.65;;
54193;SDS011;40102;50.906;6.972;2023-12-04T08:22:32;15.27;;;6.70;;
54193;SDS011;40102;50.906;6.972;2023-12-04T08:24:58;15.30;;;6.65;;
54193;SDS011;40102;50.906;6.972;2023-12-04T08:27:24;15.35;;;6.82;;
54193;SDS011;40102;50.906;6.972;2023-12-04T08:29:49;15.65;;;7.13;;
54193;SDS011;40102;50.906;6.972;2023-12-04T08:32:15;11.73;;;6.15;;
54193;SDS011;40102;50.906;6.972;2023-12-04T08:34:40;14.27;;;6.30;;
54193;SDS011;40102;50.906;6.972;2023-12-04T08:37:06;14.05;;;6.30;;
54193;SDS011;40102;50.906;6.972;2023-12-04T08:39:32;11.18;;;5.55;;
54193;SDS011;40102;50.906;6.972;2023-12-04T08:41:57;14.38;;;6.55;;
54193;SDS011;40102;50.906;6.972;2023-12-04T08:44:22;17.83;;;7.28;;
54193;SDS011;40102;50.906;6.972;2023-12-04T08:46:48;13.18;;;6.13;;
54193;SDS011;40102;50.906;6.972;2023-12-04T08:49:14;13.90;;;6.43;;
54193;SDS011;40102;50.906;6.972;2023-12-04T08:51:40;12.75;;;6.65;;
54193;SDS011;40102;50.906;6.972;2023-12-04T08:54:06;13.43;;;6.40;;
54193;SDS011;40102;50.906;6.972;2023-12-04T08:56:32;15.05;;;6.60;;
54193;SDS011;40102;50.906;6.972;2023-12-04T08:58:57;12.27;;;6.05;;
54193;SDS011;40102;50.906;6.972;2023-12-04T09:01:23;15.43;;;6.63;;
54193;SDS011;40102;50.906;6.972;2023-12-04T09:03:48;12.27;;;5.90;;
54193;SDS011;40102;50.906;6.972;2023-12-04T09:06:14;15.70;;;7.25;;
54193;SDS011;40102;50.906;6.972;2023-12-04T09:08:40;12.35;;;6.10;;
54193;SDS011;40102;50.906;6.972;2023-12-04T09:11:06;14.43;;;5.72;;
54193;SDS011;40102;50.906;6.972;2023-12-04T09:13:31;13.18;;;5.85;;
54193;SDS011;40102;50.906;6.972;2023-12-04T09:15:59;13.88;;;6.47;;
54193;SDS011;40102;50.906;6.972;2023-12-04T09:18:24;13.52;;;6.10;;
54193;SDS011;40102;50.906;6.972;2023-12-04T09:20:50;14.95;;;5.93;;
54193;SDS011;40102;50.906;6.972;2023-12-04T09:23:15;14.63;;;6.35;;
54193;SDS011;40102;50.906;6.972;2023-12-04T09:25:41;14.25;;;6.75;;
54193;SDS011;40102;50.906;6.972;2023-12-04T09:28:06;10.32;;;5.45;;
54193;SDS011;40102;50.906;6.972;2023-12-04T09:30:33;15.50;;;6.70;;
54193;SDS011;40102;50.906;6.972;2023-12-04T09:33:00;11.10;;;5.32;;
54193;SDS011;40102;50.906;6.972;2023-12-04T09:35:26;11.25;;;5.95;;
54193;SDS011;40102;50.906;6.972;2023-12-04T09:37:51;14.40;;;6.40;;
54193;SDS011;40102;50.906;6.972;2023-12-04T09:40:17;12.82;;;6.03;;
54193;SDS011;40102;50.906;6.972;2023-12-04T09:42:42;13.18;;;5.75;;
54193;SDS011;40102;50.906;6.972;2023-12-04T09:45:08;15.13;;;5.88;;
54193;SDS011;40102;50.906;6.972;2023-12-04T09:47:34;11.15;;;5.40;;
54193;SDS011;40102;50.906;6.972;2023-12-04T09:50:00;13.10;;;5.93;;
54193;SDS011;40102;50.906;6.972;2023-12-04T09:52:27;14.48;;;6.60;;
54193;SDS011;40102;50.906;6.972;2023-12-04T09:54:53;12.00;;;5.68;;
54193;SDS011;40102;50.906;6.972;2023-12-04T09:57:18;11.45;;;5.75;;
54193;SDS011;40102;50.906;6.972;2023-12-04T09:59:44;11.55;;;4.88;;
54193;SDS011;40102;50.906;6.972;2023-12-04T10:02:11;13.70;;;6.20;;
54193;SDS011;40102;50.906;6.972;2023-12-04T10:04:36;8.63;;;4.38;;
54193;SDS011;40102;50.906;6.972;2023-12-04T10:07:02;11.52;;;5.53;;
54193;SDS011;40102;50.906;6.972;2023-12-04T10:09:29;12.48;;;5.53;;
54193;SDS011;40102;50.906;6.972;2023-12-04T10:11:58;17.17;;;6.35;;
54193;SDS011;40102;50.906;6.972;2023-12-04T10:14:24;13.35;;;5.82;;
54193;SDS011;40102;50.906;6.972;2023-12-04T10:16:50;12.07;;;5.65;;
54193;SDS011;40102;50.906;6.972;2023-12-04T10:19:19;13.50;;;5.55;;
54193;SDS011;40102;50.906;6.972;2023-12-04T10:21:48;13.45;;;6.20;;
54193;SDS011;40102;50.906;6.972;2023-12-04T10:26:55;15.18;;;5.22;;
54193;SDS011;40102;50.906;6.972;2023-12-04T10:29:21;14.45;;;6.53;;
54193;SDS011;40102;50.906;6.972;2023-12-04T10:31:47;13.30;;;6.05;;
54193;SDS011;40102;50.906;6.972;2023-12-04T10:34:15;15.57;;;6.15;;
54193;SDS011;40102;50.906;6.972;2023-12-04T10:36:41;14.23;;;6.47;;
54193;SDS011;40102;50.906;6.972;2023-12-04T10:39:06;11.45;;;5.93;;
54193;SDS011;40102;50.906;6.972;2023-12-04T10:41:32;14.40;;;6.40;;
54193;SDS011;40102;50.906;6.972;2023-12-04T10:43:58;12.40;;;5.57;;
54193;SDS011;40102;50.906;6.972;2023-12-04T10:46:26;12.93;;;6.18;;
54193;SDS011;40102;50.906;6.972;2023-12-04T10:48:52;13.23;;;6.50;;
54193;SDS011;40102;50.906;6.972;2023-12-04T10:51:19;14.88;;;5.65;;
54193;SDS011;40102;50.906;6.972;2023-12-04T10:53:47;13.65;;;6.20;;
54193;SDS011;40102;50.906;6.972;2023-12-04T10:56:19;14.70;;;6.63;;
54193;SDS011;40102;50.906;6.972;2023-12-04T10:59:10;11.07;;;5.80;;
54193;SDS011;40102;50.906;6.972;2023-12-04T11:01:41;13.02;;;6.00;;
54193;SDS011;40102;50.906;6.972;2023-12-04T11:04:10;12.27;;;5.35;;
54193;SDS011;40102;50.906;6.972;2023-12-04T11:06:42;13.15;;;5.35;;
54193;SDS011;40102;50.906;6.972;2023-12-04T11:09:12;11.00;;;5.22;;
54193;SDS011;40102;50.906;6.972;2023-12-04T11:11:39;10.50;;;5.63;;
54193;SDS011;40102;50.906;6.972;2023-12-04T11:19:18;10.68;;;5.25;;
54193;SDS011;40102;50.906;6.972;2023-12-04T11:22:03;12.88;;;5.25;;
54193;SDS011;40102;50.906;6.972;2023-12-04T11:24:32;15.70;;;5.70;;
54193;SDS011;40102;50.906;6.972;2023-12-04T11:26:57;11.82;;;5.32;;
54193;SDS011;40102;50.906;6.972;2023-12-04T11:29:23;10.38;;;5.90;;
54193;SDS011;40102;50.906;6.972;2023-12-04T11:31:50;10.52;;;4.78;;
54193;SDS011;40102;50.906;6.972;2023-12-04T11:34:15;13.00;;;5.10;;
54193;SDS011;40102;50.906;6.972;2023-12-04T11:36:40;10.45;;;5.25;;
54193;SDS011;40102;50.906;6.972;2023-12-04T11:39:09;16.00;;;5.28;;
54193;SDS011;40102;50.906;6.972;2023-12-04T11:41:40;15.03;;;6.60;;
54193;SDS011;40102;50.906;6.972;2023-12-04T11:44:11;12.35;;;5.65;;
54193;SDS011;40102;50.906;6.972;2023-12-04T11:46:38;14.85;;;6.25;;
54193;SDS011;40102;50.906;6.972;2023-12-04T11:51:51;10.73;;;5.45;;
54193;SDS011;40102;50.906;6.972;2023-12-04T11:54:18;9.40;;;5.07;;
54193;SDS011;40102;50.906;6.972;2023-12-04T11:56:57;9.95;;;5.22;;
54193;SDS011;40102;50.906;6.972;2023-12-04T11:59:24;12.65;;;5.90;;
54193;SDS011;40102;50.906;6.972;2023-12-04T12:01:53;14.73;;;5.78;;
54193;SDS011;40102;50.906;6.972;2023-12-04T12:04:20;14.80;;;6.13;;
54193;SDS011;40102;50.906;6.972;2023-12-04T12:06:45;14.75;;;7.03;;
54193;SDS011;40102;50.906;6.972;2023-12-04T12:09:11;14.07;;;6.43;;
54193;SDS011;40102;50.906;6.972;2023-12-04T12:11:36;13.32;;;6.03;;
54193;SDS011;40102;50.906;6.972;2023-12-04T12:14:02;15.05;;;6.47;;
54193;SDS011;40102;50.906;6.972;2023-12-04T12:16:27;13.65;;;6.85;;
54193;SDS011;40102;50.906;6.972;2023-12-04T12:18:53;11.20;;;6.03;;
54193;SDS011;40102;50.906;6.972;2023-12-04T12:21:18;11.27;;;5.85;;
54193;SDS011;40102;50.906;6.972;2023-12-04T12:23:44;12.18;;;5.85;;
54193;SDS011;40102;50.906;6.972;2023-12-04T12:26:10;13.43;;;5.78;;
54193;SDS011;40102;50.906;6.972;2023-12-04T12:28:36;14.23;;;6.78;;
54193;SDS011;40102;50.906;6.972;2023-12-04T12:31:02;13.57;;;5.85;;
54193;SDS011;40102;50.906;6.972;2023-12-04T12:33:28;10.75;;;5.88;;
54193;SDS011;40102;50.906;6.972;2023-12-04T12:35:54;14.07;;;5.95;;
54193;SDS011;40102;50.906;6.972;2023-12-04T12:38:20;12.30;;;5.90;;
54193;SDS011;40102;50.906;6.972;2023-12-04T12:40:46;12.63;;;6.05;;
54193;SDS011;40102;50.906;6.972;2023-12-04T12:43:11;14.57;;;6.47;;
54193;SDS011;40102;50.906;6.972;2023-12-04T12:45:40;12.98;;;5.68;;
54193;SDS011;40102;50.906;6.972;2023-12-04T12:48:10;14.93;;;6.72;;
54193;SDS011;40102;50.906;6.972;2023-12-04T12:50:38;14.45;;;5.72;;
54193;SDS011;40102;50.906;6.972;2023-12-04T12:53:04;12.82;;;5.70;;
54193;SDS011;40102;50.906;6.972;2023-12-04T12:55:29;11.10;;;5.30;;
54193;SDS011;40102;50.906;6.972;2023-12-04T12:57:57;14.32;;;5.80;;
54193;SDS011;40102;50.906;6.972;2023-12-04T13:00:23;12.65;;;5.72;;
54193;SDS011;40102;50.906;6.972;2023-12-04T13:02:51;12.00;;;5.93;;
54193;SDS011;40102;50.906;6.972;2023-12-04T13:05:18;15.02;;;6.20;;
54193;SDS011;40102;50.906;6.972;2023-12-04T13:07:44;12.25;;;5.82;;
54193;SDS011;40102;50.906;6.972;2023-12-04T13:10:10;12.98;;;5.70;;
54193;SDS011;40102;50.906;6.972;2023-12-04T13:12:36;10.85;;;5.78;;
54193;SDS011;40102;50.906;6.972;2023-12-04T13:15:01;12.95;;;5.97;;
54193;SDS011;40102;50.906;6.972;2023-12-04T13:17:28;14.20;;;6.22;;
54193;SDS011;40102;50.906;6.972;2023-12-04T13:19:54;13.38;;;6.55;;
54193;SDS011;40102;50.906;6.972;2023-12-04T13:22:19;13.05;;;5.70;;
54193;SDS011;40102;50.906;6.972;2023-12-04T13:24:44;13.57;;;5.90;;
54193;SDS011;40102;50.906;6.972;2023-12-04T13:27:10;12.45;;;6.25;;
54193;SDS011;40102;50.906;6.972;2023-12-04T13:29:36;11.80;;;5.57;;
54193;SDS011;40102;50.906;6.972;2023-12-04T13:32:01;15.00;;;5.75;;
54193;SDS011;40102;50.906;6.972;2023-12-04T13:34:27;12.38;;;5.68;;
54193;SDS011;40102;50.906;6.972;2023-12-04T13:36:53;11.48;;;4.95;;
54193;SDS011;40102;50.906;6.972;2023-12-04T13:39:18;11.50;;;5.85;;
54193;SDS011;40102;50.906;6.972;2023-12-04T13:41:51;12.25;;;4.78;;
54193;SDS011;40102;50.906;6.972;2023-12-04T13:44:36;12.18;;;5.53;;
54193;SDS011;40102;50.906;6.972;2023-12-04T13:47:02;14.02;;;6.15;;
54193;SDS011;40102;50.906;6.972;2023-12-04T13:49:27;13.73;;;5.82;;
54193;SDS011;40102;50.906;6.972;2023-12-04T13:51:53;13.57;;;6.53;;
54193;SDS011;40102;50.906;6.972;2023-12-04T13:54:19;10.30;;;5.05;;
54193;SDS011;40102;50.906;6.972;2023-12-04T13:56:49;11.82;;;5.65;;
54193;SDS011;40102;50.906;6.972;2023-12-04T13:59:21;11.88;;;5.63;;
54193;SDS011;40102;50.906;6.972;2023-12-04T14:01:50;10.32;;;5.13;;
54193;SDS011;40102;50.906;6.972;2023-12-04T14:04:17;12.13;;;5.47;;
54193;SDS011;40102;50.906;6.972;2023-12-04T14:06:43;11.30;;;5.72;;
54193;SDS011;40102;50.906;6.972;2023-12-04T14:09:08;11.90;;;5.15;;
54193;SDS011;40102;50.906;6.972;2023-12-04T14:11:42;11.00;;;5.40;;
54193;SDS011;40102;50.906;6.972;2023-12-04T14:14:11;10.07;;;4.38;;
54193;SDS011;40102;50.906;6.972;2023-12-04T14:16:38;10.90;;;5.10;;
54193;SDS011;40102;50.906;6.972;2023-12-04T14:19:03;11.88;;;5.60;;
54193;SDS011;40102;50.906;6.972;2023-12-04T14:21:29;10.90;;;5.00;;
54193;SDS011;40102;50.906;6.972;2023-12-04T14:23:55;10.27;;;5.20;;
54193;SDS011;40102;50.906;6.972;2023-12-04T14:26:20;9.77;;;4.60;;
54193;SDS011;40102;50.906;6.972;2023-12-04T14:28:46;11.18;;;5.90;;
54193;SDS011;40102;50.906;6.972;2023-12-04T14:31:11;10.93;;;5.53;;
54193;SDS011;40102;50.906;6.972;2023-12-04T14:33:37;10.75;;;5.47;;
54193;SDS011;40102;50.906;6.972;2023-12-04T14:36:02;11.25;;;5.13;;
54193;SDS011;40102;50.906;6.972;2023-12-04T14:38:28;11.98;;;6.03;;
54193;SDS011;40102;50.906;6.972;2023-12-04T14:40:55;11.93;;;5.47;;
54193;SDS011;40102;50.906;6.972;2023-12-04T14:43:20;11.00;;;5.10;;
54193;SDS011;40102;50.906;6.972;2023-12-04T14:45:46;10.52;;;5.10;;
54193;SDS011;40102;50.906;6.972;2023-12-04T14:48:11;14.63;;;5.90;;
54193;SDS011;40102;50.906;6.972;2023-12-04T14:50:36;8.85;;;4.85;;
54193;SDS011;40102;50.906;6.972;2023-12-04T14:53:03;4.85;;;2.42;;
54193;SDS011;40102;50.906;6.972;2023-12-04T14:55:52;11.10;;;4.90;;
54193;SDS011;40102;50.906;6.972;2023-12-04T14:58:36;6.10;;;3.50;;
54193;SDS011;40102;50.906;6.972;2023-12-04T15:01:13;9.25;;;4.35;;
54193;SDS011;40102;50.906;6.972;2023-12-04T15:04:01;9.15;;;4.45;;
54193;SDS011;40102;50.906;6.972;2023-12-04T15:06:45;12.95;;;4.65;;
54193;SDS011;40102;50.906;6.972;2023-12-04T15:09:43;11.35;;;5.05;;
54193;SDS011;40102;50.906;6.972;2023-12-04T15:12:15;12.07;;;4.90;;
54193;SDS011;40102;50.906;6.972;2023-12-04T15:14:50;11.57;;;5.50;;
54193;SDS011;40102;50.906;6.972;2023-12-04T15:17:21;9.73;;;5.30;;
54193;SDS011;40102;50.906;6.972;2023-12-04T15:20:13;11.13;;;5.40;;
54193;SDS011;40102;50.906;6.972;2023-12-04T15:22:38;10.73;;;5.10;;
54193;SDS011;40102;50.906;6.972;2023-12-04T15:25:04;12.38;;;5.68;;
54193;SDS011;40102;50.906;6.972;2023-12-04T15:27:31;8.95;;;4.75;;
54193;SDS011;40102;50.906;6.972;2023-12-04T15:29:57;10.23;;;5.50;;
54193;SDS011;40102;50.906;6.972;2023-12-04T15:32:22;11.88;;;5.45;;
54193;SDS011;40102;50.906;6.972;2023-12-04T15:34:48;9.00;;;5.13;;
54193;SDS011;40102;50.906;6.972;2023-12-04T15:37:16;11.13;;;5.68;;
54193;SDS011;40102;50.906;6.972;2023-12-04T15:39:42;12.05;;;6.07;;
54193;SDS011;40102;50.906;6.972;2023-12-04T15:42:07;10.13;;;5.15;;
54193;SDS011;40102;50.906;6.972;2023-12-04T15:44:33;10.15;;;4.90;;
54193;SDS011;40102;50.906;6.972;2023-12-04T15:46:58;10.15;;;4.85;;
54193;SDS011;40102;50.906;6.972;2023-12-04T15:49:23;11.65;;;5.35;;
54193;SDS011;40102;50.906;6.972;2023-12-04T15:51:49;12.88;;;5.68;;
54193;SDS011;40102;50.906;6.972;2023-12-04T15:54:14;10.05;;;5.25;;
54193;SDS011;40102;50.906;6.972;2023-12-04T15:56:40;9.27;;;4.93;;